KSBY

Salisbury-Ocean City Wicomico Regional Airport

Airport
ICAO code
KSBY
Summary
ICAO Region
NAM
ICAO Territory
Location

Salisbury, Maryland,

Coordinates
38° 20' 25" N , 75° 30' 37" W
KCC
Airport WX
Cumulonimbus
Metar
KSBY 222354Z 15007KT 10SM FEW110 07/01 A2980 RMK AO2 SLP094 T00720011 10117 20072 56012

Description

Salisbury-Ocean City Wicomico Regional Airport is located in Wicomico County, Maryland, 8km from the central business district of Salisbury, Maryland.

Climatology

Humid “subtropical” climate (Köppen climate classification Cfa) - characterized by hot, humid summers and cool winters. Significant amounts of precipitation occur in all seasons in most areas. Winter rainfall (and sometimes snowfall) is associated with large storms that the westerlies steer from west to east. Most summer rainfall occurs during thunderstorms and occasional tropical storms (hurricanes).

Runways

Designator Length Width Surface Rops
5/23 1524 30 ASP Yes/Yes
14/32 1676 46 PEM Yes/Yes

Airport map

Aerial View

SKYbrary Partners:

Safety knowledge contributed by: